Dewdrop, Louisiana
Current Conditions -  °F | °C
As of 10:15 PM on Tuesday 27 Jan 2015 (Local Time) from KBQP Reporting Station
Clear Clear  
Wind Chill: 42°   Ceiling: Unl
Heat Index: 45°   Visibility: 10mi
Dew Point: 40°   Wind: 5mph
Humidity: 82%   Direction: 70°ENE
Pressure: 30.18"   Gusts: NA
Location:  32.8721°N, 91.912°W
Report Text: KBQP 280415Z AUTO 07004KT 10SM CLR 07/04 A3018 RMK AO2 T00710042
Loading
Personal Weather Stations






























Interactive Weather Map New forecast layout! Learn more

10-Day Weather Forecast

Advertisements
Track Severe Weather on mobile